createdAt,value
2022-10-15T00:01:41.716Z,22.20
2022-10-15T00:04:38.750Z,26.60
2022-10-15T00:07:35.499Z,27.20
2022-10-15T00:10:32.520Z,26.40
2022-10-15T00:13:29.406Z,26.60
2022-10-15T00:16:27.826Z,22.20
2022-10-15T00:19:24.654Z,24.80
2022-10-15T00:22:21.730Z,29.20
2022-10-15T00:25:19.456Z,35.80
2022-10-15T00:28:16.401Z,32.80
2022-10-15T00:31:14.785Z,28.00
2022-10-15T00:34:11.321Z,29.60
2022-10-15T00:37:08.493Z,36.80
2022-10-15T00:40:06.329Z,40.20
2022-10-15T00:43:03.430Z,39.20
2022-10-15T00:46:00.337Z,42.20
2022-10-15T00:49:11.451Z,40.60
2022-10-15T00:52:09.308Z,48.60
2022-10-15T00:55:13.450Z,43.80
2022-10-15T01:01:10.454Z,52.20
2022-10-15T01:04:07.546Z,43.40
2022-10-15T01:07:04.420Z,46.60
2022-10-15T01:10:01.457Z,50.60
2022-10-15T01:13:30.482Z,45.20
2022-10-15T01:16:36.590Z,51.40
2022-10-15T01:19:55.260Z,45.80
2022-10-15T01:23:23.621Z,44.80
2022-10-15T01:27:04.903Z,53.20
2022-10-15T01:30:19.961Z,49.00
2022-10-15T01:33:44.777Z,50.80
2022-10-15T01:37:01.439Z,45.20
2022-10-15T01:40:10.882Z,44.00
2022-10-15T01:43:14.123Z,49.20
2022-10-15T01:46:21.126Z,41.00
2022-10-15T01:49:31.973Z,45.60
2022-10-15T01:52:33.932Z,53.40
2022-10-15T01:55:31.559Z,46.40
2022-10-15T01:58:30.926Z,37.80
2022-10-15T02:01:28.823Z,50.00
2022-10-15T02:04:31.482Z,52.40
2022-10-15T02:07:31.099Z,49.80
2022-10-15T02:10:31.813Z,41.60
2022-10-15T02:13:39.286Z,44.20
2022-10-15T02:16:43.852Z,56.20
2022-10-15T02:19:49.483Z,54.60
2022-10-15T02:22:53.238Z,53.20
2022-10-15T02:25:50.662Z,44.80
2022-10-15T02:28:51.165Z,55.60
2022-10-15T02:31:48.777Z,47.00
2022-10-15T02:34:45.706Z,52.00
2022-10-15T02:37:46.605Z,55.80
2022-10-15T02:40:47.388Z,50.60
2022-10-15T02:43:46.857Z,52.00
2022-10-15T02:46:43.393Z,41.40
2022-10-15T02:49:41.881Z,51.60
2022-10-15T02:52:38.863Z,49.00
2022-10-15T02:55:35.963Z,53.00
2022-10-15T02:58:32.755Z,41.20
2022-10-15T03:01:30.163Z,42.20
2022-10-15T03:04:27.332Z,52.80
2022-10-15T03:07:25.062Z,42.60
2022-10-15T03:10:22.702Z,47.40
2022-10-15T03:13:19.724Z,37.20
2022-10-15T03:16:22.037Z,39.20
2022-10-15T03:19:19.749Z,46.80
2022-10-15T03:22:17.547Z,41.80
2022-10-15T03:25:21.456Z,46.80
2022-10-15T03:28:24.079Z,36.80
2022-10-15T03:31:21.608Z,43.40
2022-10-15T03:34:19.853Z,47.00
2022-10-15T03:37:17.632Z,47.80
2022-10-15T03:40:15.697Z,40.60
2022-10-15T03:43:14.543Z,44.80
2022-10-15T03:46:11.826Z,40.00
2022-10-15T03:49:12.588Z,48.40
2022-10-15T03:52:10.394Z,41.40
2022-10-15T03:55:09.750Z,47.20
2022-10-15T03:58:06.929Z,49.40
2022-10-15T04:01:16.853Z,53.20
2022-10-15T04:04:13.586Z,42.60
2022-10-15T04:07:10.526Z,46.00
2022-10-15T04:10:08.463Z,50.80
2022-10-15T04:13:08.753Z,48.80
2022-10-15T04:16:05.839Z,47.20
2022-10-15T04:19:04.102Z,48.60
2022-10-15T04:22:03.284Z,51.60
2022-10-15T04:25:06.709Z,40.80
2022-10-15T04:28:04.037Z,51.80
2022-10-15T04:31:02.920Z,52.00
2022-10-15T04:34:00.910Z,50.40
2022-10-15T04:36:58.844Z,61.00
2022-10-15T04:39:57.751Z,55.60
2022-10-15T04:42:54.576Z,48.80
2022-10-15T04:45:51.580Z,57.80
2022-10-15T04:48:49.916Z,40.60
2022-10-15T04:51:48.355Z,51.40
2022-10-15T04:54:51.722Z,53.20
2022-10-15T04:57:48.563Z,48.80
2022-10-15T05:00:52.400Z,47.00
2022-10-15T05:04:00.894Z,58.00
2022-10-15T05:06:58.758Z,51.80
2022-10-15T05:09:55.763Z,64.00
2022-10-15T05:12:55.867Z,47.00
2022-10-15T05:16:13.815Z,44.80
2022-10-15T05:19:12.327Z,52.20
2022-10-15T05:22:11.689Z,57.40
2022-10-15T05:25:14.909Z,50.20
2022-10-15T05:28:12.744Z,50.60
2022-10-15T05:31:19.040Z,50.80
2022-10-15T05:34:16.779Z,56.00
2022-10-15T05:37:20.992Z,42.20
2022-10-15T05:40:21.231Z,47.00
2022-10-15T05:43:31.527Z,49.00
2022-10-15T05:46:31.941Z,48.80
2022-10-15T05:49:28.828Z,45.00
2022-10-15T05:52:33.805Z,52.00
2022-10-15T05:55:47.487Z,52.20
2022-10-15T05:58:46.835Z,50.60
2022-10-15T06:01:43.846Z,54.80
2022-10-15T06:04:40.873Z,57.00
2022-10-15T06:07:40.821Z,51.60
2022-10-15T06:10:37.886Z,50.40
2022-10-15T06:13:35.165Z,53.60
2022-10-15T06:16:31.741Z,58.00
2022-10-15T06:19:28.823Z,60.20
2022-10-15T06:22:25.685Z,47.20
2022-10-15T06:25:23.147Z,59.80
2022-10-15T06:28:19.550Z,51.00
2022-10-15T06:31:16.822Z,65.20
2022-10-15T06:34:13.704Z,59.60
2022-10-15T06:37:10.691Z,57.60
2022-10-15T06:40:08.435Z,58.80
2022-10-15T06:43:12.694Z,45.20
2022-10-15T06:46:09.994Z,48.80
2022-10-15T06:49:06.862Z,40.80
2022-10-15T06:52:04.754Z,53.20
2022-10-15T06:55:02.168Z,49.80
2022-10-15T06:57:58.908Z,60.00
2022-10-15T07:01:03.502Z,56.20
2022-10-15T07:04:00.607Z,61.20
2022-10-15T07:06:57.941Z,56.60
2022-10-15T07:09:57.947Z,56.40
2022-10-15T07:12:57.800Z,50.80
2022-10-15T07:15:56.211Z,59.60
2022-10-15T07:18:53.004Z,58.80
2022-10-15T07:21:50.094Z,59.20
2022-10-15T07:24:48.016Z,51.40
2022-10-15T07:27:44.985Z,47.60
2022-10-15T07:30:41.714Z,39.60
2022-10-15T07:33:38.691Z,43.80
2022-10-15T07:36:35.685Z,55.20
2022-10-15T07:39:34.636Z,37.20
2022-10-15T07:42:35.366Z,56.80
2022-10-15T07:45:32.679Z,61.00
2022-10-15T07:48:30.026Z,48.60
2022-10-15T07:51:26.813Z,48.80
2022-10-15T07:54:24.203Z,61.00
2022-10-15T07:57:20.903Z,51.60
2022-10-15T08:00:21.008Z,52.80
2022-10-15T08:03:18.341Z,51.20
2022-10-15T08:06:16.040Z,51.80
2022-10-15T08:09:13.000Z,52.20
2022-10-15T08:12:09.922Z,50.60
2022-10-15T08:15:07.367Z,58.00
2022-10-15T08:18:04.794Z,44.80
2022-10-15T08:21:01.843Z,50.80
2022-10-15T08:23:59.697Z,50.80
2022-10-15T08:27:04.059Z,53.00
2022-10-15T08:30:00.862Z,56.60
2022-10-15T08:32:57.791Z,49.00
2022-10-15T08:35:54.899Z,53.80
2022-10-15T08:38:51.734Z,50.40
2022-10-15T08:41:53.646Z,60.60
2022-10-15T08:44:51.817Z,61.40
2022-10-15T08:47:49.704Z,47.80
2022-10-15T08:51:09.551Z,58.00
2022-10-15T08:54:07.304Z,60.40
2022-10-15T08:57:47.100Z,50.80
2022-10-15T09:01:11.502Z,55.80
2022-10-15T09:04:18.018Z,53.00
2022-10-15T09:07:43.442Z,55.80
2022-10-15T09:10:52.157Z,55.60
2022-10-15T09:13:53.075Z,56.20
2022-10-15T09:16:53.958Z,54.40
2022-10-15T09:19:54.872Z,55.40
2022-10-15T09:22:52.198Z,49.00
2022-10-15T09:26:15.800Z,57.20
2022-10-15T09:29:29.108Z,56.80
2022-10-15T09:32:31.976Z,46.00
2022-10-15T09:35:34.732Z,60.00
2022-10-15T09:38:49.774Z,60.60
2022-10-15T09:42:13.037Z,62.40
2022-10-15T09:45:14.766Z,64.60
2022-10-15T09:48:15.910Z,55.20
2022-10-15T09:51:22.922Z,59.20
2022-10-15T09:54:20.046Z,59.20
2022-10-15T09:57:19.632Z,52.60
2022-10-15T10:00:17.136Z,61.40
2022-10-15T10:03:14.988Z,48.80
2022-10-15T10:06:13.356Z,60.00
2022-10-15T10:09:27.280Z,57.00
2022-10-15T10:12:35.113Z,51.20
2022-10-15T10:15:41.627Z,59.40
2022-10-15T10:18:39.126Z,52.80
2022-10-15T10:21:37.314Z,58.20
2022-10-15T10:24:34.602Z,53.40
2022-10-15T10:27:31.870Z,60.20
2022-10-15T10:30:33.771Z,59.00
2022-10-15T10:33:38.313Z,70.40
2022-10-15T10:36:35.313Z,62.80
2022-10-15T10:39:35.853Z,51.40
2022-10-15T10:42:34.399Z,60.60
2022-10-15T10:45:34.956Z,60.40
2022-10-15T10:48:42.654Z,58.20
2022-10-15T10:51:48.616Z,53.60
2022-10-15T10:54:46.329Z,54.80
2022-10-15T10:57:58.879Z,47.80
2022-10-15T11:00:56.715Z,53.80
2022-10-15T11:03:53.941Z,50.60
2022-10-15T11:07:06.989Z,54.80
2022-10-15T11:10:08.133Z,46.60
2022-10-15T11:13:15.837Z,39.00
2022-10-15T11:16:54.677Z,55.20
2022-10-15T11:20:29.259Z,49.40
2022-10-15T11:23:49.561Z,48.20
2022-10-15T11:27:10.915Z,47.20
2022-10-15T11:30:27.591Z,28.20
2022-10-15T11:33:51.936Z,29.00
2022-10-15T11:37:01.902Z,25.00
2022-10-15T11:40:16.015Z,32.60
2022-10-15T11:43:13.070Z,30.60
2022-10-15T11:46:25.399Z,32.60
2022-10-15T11:49:25.335Z,33.20
2022-10-15T11:52:32.013Z,26.40
2022-10-15T11:55:32.176Z,30.00
2022-10-15T11:58:29.911Z,28.20
2022-10-15T12:01:39.098Z,24.80
2022-10-15T12:04:59.799Z,27.20
2022-10-15T12:07:57.047Z,24.00
2022-10-15T12:11:24.146Z,20.00
2022-10-15T12:14:31.659Z,27.80
2022-10-15T12:17:31.989Z,28.40
2022-10-15T12:20:29.013Z,28.40
2022-10-15T12:23:39.401Z,26.60
2022-10-15T12:26:35.947Z,20.60
2022-10-15T12:29:33.271Z,25.60
2022-10-15T12:32:44.089Z,20.00
2022-10-15T12:35:41.162Z,26.00
2022-10-15T12:38:41.319Z,29.80
2022-10-15T12:41:48.186Z,19.80
2022-10-15T12:44:48.467Z,22.60
2022-10-15T12:48:17.107Z,23.40
2022-10-15T12:51:16.404Z,19.20
2022-10-15T12:54:32.665Z,30.20
2022-10-15T12:57:36.197Z,21.80
2022-10-15T13:00:42.697Z,24.60
2022-10-15T13:03:53.823Z,24.00
2022-10-15T13:06:51.128Z,27.80
2022-10-15T13:09:48.485Z,28.40
2022-10-15T13:12:45.763Z,20.20
2022-10-15T13:15:59.225Z,21.20
2022-10-15T13:18:57.216Z,19.80
2022-10-15T13:21:58.305Z,17.20
2022-10-15T13:24:58.269Z,22.40
2022-10-15T13:27:54.839Z,13.00
2022-10-15T13:30:52.340Z,15.00
2022-10-15T13:33:50.482Z,17.20
2022-10-15T13:36:47.366Z,13.00
2022-10-15T13:39:44.194Z,13.20
2022-10-15T13:42:41.042Z,10.80
2022-10-15T13:45:37.980Z,10.40
2022-10-15T13:51:46.175Z,13.80
2022-10-15T13:54:44.752Z,16.40
2022-10-15T14:00:48.855Z,16.00
2022-10-15T14:03:50.404Z,16.80
2022-10-15T14:07:03.992Z,14.20
2022-10-15T14:10:01.350Z,11.40
2022-10-15T14:12:58.403Z,9.00
2022-10-15T14:16:14.515Z,16.40
2022-10-15T14:19:21.265Z,16.80
2022-10-15T14:22:20.648Z,11.60
2022-10-15T14:25:22.695Z,10.00
2022-10-15T14:28:21.162Z,10.20
2022-10-15T14:31:33.832Z,8.80
2022-10-15T14:34:34.751Z,10.20
2022-10-15T14:37:35.278Z,12.00
2022-10-15T14:40:32.304Z,10.80
2022-10-15T14:43:32.670Z,10.20
2022-10-15T14:46:36.614Z,3.40
2022-10-15T14:49:34.616Z,7.80
2022-10-15T14:55:33.399Z,8.40
2022-10-15T14:58:30.136Z,7.40
2022-10-15T15:01:28.038Z,6.20
2022-10-15T15:05:10.104Z,8.40
2022-10-15T15:08:08.984Z,8.00
2022-10-15T15:11:07.205Z,5.00
2022-10-15T15:14:04.324Z,9.00
2022-10-15T15:17:01.292Z,4.20
2022-10-15T15:19:58.860Z,6.00
2022-10-15T15:22:56.404Z,6.00
2022-10-15T15:25:54.218Z,8.40
2022-10-15T15:28:51.330Z,8.40
2022-10-15T15:31:48.246Z,8.40
2022-10-15T15:34:45.727Z,8.80
2022-10-15T15:37:43.023Z,9.00
2022-10-15T15:40:40.409Z,5.00
2022-10-15T15:43:37.323Z,4.20
2022-10-15T15:46:34.605Z,8.60
2022-10-15T15:49:32.440Z,8.80
2022-10-15T15:52:31.316Z,8.00
2022-10-15T15:55:31.386Z,10.00
2022-10-15T15:58:28.594Z,5.80
2022-10-15T16:01:26.574Z,9.00
2022-10-15T16:04:24.415Z,10.20
2022-10-15T16:07:23.742Z,9.60
2022-10-15T16:10:22.533Z,6.00
2022-10-15T16:13:19.502Z,10.60
2022-10-15T16:16:17.602Z,11.00
2022-10-15T16:19:15.530Z,8.40
2022-10-15T16:22:13.479Z,12.00
2022-10-15T16:25:10.391Z,10.00
2022-10-15T16:28:08.208Z,10.20
2022-10-15T16:31:25.188Z,10.60
2022-10-15T16:34:25.129Z,8.00
2022-10-15T16:37:22.431Z,11.20
2022-10-15T16:40:19.352Z,9.80
2022-10-15T16:43:16.653Z,9.40
2022-10-15T16:46:14.000Z,11.40
2022-10-15T16:49:11.520Z,9.20
2022-10-15T16:52:08.896Z,10.60
2022-10-15T16:55:06.827Z,9.60
2022-10-15T16:58:04.440Z,10.60
2022-10-15T17:01:22.727Z,8.00
2022-10-15T17:04:20.331Z,12.40
2022-10-15T17:07:17.599Z,12.60
2022-10-15T17:10:15.032Z,9.20
2022-10-15T17:13:12.422Z,11.60
2022-10-15T17:16:15.956Z,6.00
2022-10-15T17:19:14.852Z,14.60
2022-10-15T17:22:12.374Z,14.20
2022-10-15T17:25:09.863Z,11.00
2022-10-15T17:28:11.372Z,11.20
2022-10-15T17:31:13.547Z,10.80
2022-10-15T17:34:11.149Z,12.60
2022-10-15T17:37:08.415Z,11.40
2022-10-15T17:40:06.400Z,11.60
2022-10-15T17:43:03.978Z,13.20
2022-10-15T17:46:02.168Z,12.00
2022-10-15T17:48:59.757Z,9.20
2022-10-15T17:51:57.395Z,10.80
2022-10-15T17:54:54.443Z,11.00
2022-10-15T17:57:51.416Z,11.00
2022-10-15T18:00:56.322Z,7.60
2022-10-15T18:03:53.428Z,7.00
2022-10-15T18:06:51.533Z,7.60
2022-10-15T18:09:54.498Z,3.40
2022-10-15T18:12:51.423Z,5.20
2022-10-15T18:15:49.038Z,5.00
2022-10-15T18:18:46.266Z,2.40
2022-10-15T18:21:48.505Z,5.00
2022-10-15T18:24:47.415Z,8.60
2022-10-15T18:27:44.426Z,6.80
2022-10-15T18:30:42.225Z,7.20
2022-10-15T18:33:40.806Z,5.80
2022-10-15T18:36:41.756Z,5.80
2022-10-15T18:39:39.730Z,6.80
2022-10-15T18:42:37.321Z,8.00
2022-10-15T18:45:36.202Z,5.00
2022-10-15T18:48:33.452Z,2.60
2022-10-15T18:51:30.630Z,11.00
2022-10-15T18:54:27.424Z,2.80
2022-10-15T18:57:24.296Z,7.00
2022-10-15T19:00:21.362Z,11.00
2022-10-15T19:03:18.380Z,7.00
2022-10-15T19:06:15.572Z,8.40
2022-10-15T19:09:20.355Z,8.60
2022-10-15T19:12:18.043Z,9.40
2022-10-15T19:15:15.066Z,8.60
2022-10-15T19:18:12.907Z,8.00
2022-10-15T19:21:11.054Z,9.40
2022-10-15T19:24:08.198Z,8.00
2022-10-15T19:27:05.854Z,7.40
2022-10-15T19:30:04.000Z,11.80
2022-10-15T19:33:01.732Z,11.00
2022-10-15T19:35:59.813Z,8.40
2022-10-15T19:38:57.652Z,6.60
2022-10-15T19:41:54.463Z,6.80
2022-10-15T19:44:51.720Z,8.80
2022-10-15T19:47:48.700Z,8.80
2022-10-15T19:50:46.265Z,6.60
2022-10-15T19:53:43.739Z,5.80
2022-10-15T19:56:40.693Z,8.20
2022-10-15T19:59:38.655Z,3.80
2022-10-15T20:02:36.669Z,1.80
2022-10-15T20:05:33.503Z,7.20
2022-10-15T20:08:31.774Z,6.80
2022-10-15T20:11:28.555Z,4.00
2022-10-15T20:14:25.479Z,4.60
2022-10-15T20:17:22.892Z,3.00
2022-10-15T20:20:20.570Z,3.80
2022-10-15T20:23:17.655Z,5.00
2022-10-15T20:26:14.959Z,6.60
2022-10-15T20:29:17.285Z,4.00
2022-10-15T20:32:30.233Z,3.00
2022-10-15T20:35:38.153Z,3.00
2022-10-15T20:38:35.532Z,2.00
2022-10-15T20:41:32.477Z,3.60
2022-10-15T20:44:30.413Z,2.40
2022-10-15T20:47:27.733Z,3.00
2022-10-15T20:50:27.090Z,3.80
2022-10-15T20:53:24.525Z,3.20
2022-10-15T20:56:21.868Z,1.60
2022-10-15T20:59:18.855Z,2.00
2022-10-15T21:02:15.516Z,2.80
2022-10-15T21:05:12.698Z,2.40
2022-10-15T21:08:09.415Z,2.00
2022-10-15T21:11:07.507Z,0.80
2022-10-15T21:14:04.775Z,2.00
2022-10-15T21:17:01.651Z,3.00
2022-10-15T21:19:58.438Z,1.00
2022-10-15T21:22:55.552Z,2.00
2022-10-15T21:25:52.615Z,2.00
2022-10-15T21:28:56.755Z,1.40
2022-10-15T21:31:54.177Z,2.20
2022-10-15T21:34:51.198Z,3.00
2022-10-15T21:37:48.675Z,2.00
2022-10-15T21:40:45.473Z,3.00
2022-10-15T21:43:42.620Z,1.00
2022-10-15T21:46:40.630Z,1.00
2022-10-15T21:49:37.590Z,1.00
2022-10-15T21:52:34.449Z,1.00
2022-10-15T21:55:31.775Z,3.00
2022-10-15T21:58:28.928Z,2.00
2022-10-15T22:01:29.121Z,2.60
2022-10-15T22:04:26.682Z,2.80
2022-10-15T22:07:23.870Z,3.20
2022-10-15T22:10:21.569Z,3.80
2022-10-15T22:13:18.511Z,2.00
2022-10-15T22:16:16.209Z,2.00
2022-10-15T22:19:14.369Z,4.00
2022-10-15T22:22:11.310Z,2.00
2022-10-15T22:25:09.108Z,1.80
2022-10-15T22:28:06.317Z,1.40
2022-10-15T22:31:05.211Z,2.60
2022-10-15T22:34:02.611Z,2.40
2022-10-15T22:36:59.778Z,3.00
2022-10-15T22:39:56.831Z,1.00
2022-10-15T22:42:53.686Z,2.00
2022-10-15T22:45:50.983Z,3.00
2022-10-15T22:48:49.430Z,1.80
2022-10-15T22:51:46.939Z,2.80
2022-10-15T22:54:43.291Z,2.00
2022-10-15T22:57:40.502Z,1.80
2022-10-15T23:00:37.464Z,2.00
2022-10-15T23:03:34.566Z,1.80
2022-10-15T23:06:32.293Z,2.00
2022-10-15T23:09:29.577Z,3.00
2022-10-15T23:12:26.901Z,1.00
2022-10-15T23:15:24.779Z,1.80
2022-10-15T23:18:21.769Z,1.00
2022-10-15T23:21:30.342Z,1.00
2022-10-15T23:24:28.989Z,2.40
2022-10-15T23:27:26.317Z,2.00
2022-10-15T23:30:24.990Z,3.40
2022-10-15T23:33:23.751Z,2.80
2022-10-15T23:36:20.847Z,3.00
2022-10-15T23:39:19.947Z,2.80
2022-10-15T23:42:16.853Z,0.00
2022-10-15T23:45:14.023Z,2.00
2022-10-15T23:48:11.653Z,2.20
2022-10-15T23:51:21.685Z,2.00
2022-10-15T23:54:18.923Z,2.80
2022-10-15T23:57:15.519Z,1.80
